sensor_id;sensor_type;location;lat;lon;timestamp;pressure;altitude;pressure_sealevel;temperature;humidity
52105;BME280;38103;42.776;23.112;2023-03-26T00:01:17;93489.66;;;7.98;93.48
52105;BME280;38103;42.776;23.112;2023-03-26T00:03:43;93487.72;;;8.05;92.59
52105;BME280;38103;42.776;23.112;2023-03-26T00:06:13;93483.59;;;7.97;92.64
52105;BME280;38103;42.776;23.112;2023-03-26T00:08:41;93468.38;;;7.87;93.99
52105;BME280;38103;42.776;23.112;2023-03-26T00:11:09;93468.38;;;7.87;94.19
52105;BME280;38103;42.776;23.112;2023-03-26T00:13:35;93455.00;;;7.89;93.87
52105;BME280;38103;42.776;23.112;2023-03-26T00:16:02;93453.16;;;7.89;93.79
52105;BME280;38103;42.776;23.112;2023-03-26T00:18:28;93452.72;;;7.92;93.13
52105;BME280;38103;42.776;23.112;2023-03-26T00:21:00;93453.84;;;7.85;93.49
52105;BME280;38103;42.776;23.112;2023-03-26T00:23:27;93416.00;;;7.49;93.79
52105;BME280;38103;42.776;23.112;2023-03-26T00:25:53;93461.75;;;7.73;94.76
52105;BME280;38103;42.776;23.112;2023-03-26T00:28:20;93428.34;;;7.37;95.56
52105;BME280;38103;42.776;23.112;2023-03-26T00:30:55;93477.16;;;7.45;96.70
52105;BME280;38103;42.776;23.112;2023-03-26T00:33:22;93470.19;;;7.26;98.42
52105;BME280;38103;42.776;23.112;2023-03-26T00:35:56;93473.81;;;7.25;98.64
52105;BME280;38103;42.776;23.112;2023-03-26T00:38:23;93474.25;;;7.10;100.00
52105;BME280;38103;42.776;23.112;2023-03-26T00:40:50;93474.13;;;7.17;99.90
52105;BME280;38103;42.776;23.112;2023-03-26T00:43:20;93460.03;;;6.99;100.00
52105;BME280;38103;42.776;23.112;2023-03-26T00:45:53;93483.50;;;7.13;100.00
52105;BME280;38103;42.776;23.112;2023-03-26T00:48:20;93480.50;;;7.09;100.00
52105;BME280;38103;42.776;23.112;2023-03-26T00:50:46;93481.56;;;7.20;100.00
52105;BME280;38103;42.776;23.112;2023-03-26T00:53:13;93464.19;;;7.19;99.91
52105;BME280;38103;42.776;23.112;2023-03-26T00:55:41;93486.06;;;7.32;99.97
52105;BME280;38103;42.776;23.112;2023-03-26T00:58:07;93462.84;;;7.29;99.24
52105;BME280;38103;42.776;23.112;2023-03-26T01:01:00;93480.38;;;7.47;98.47
52105;BME280;38103;42.776;23.112;2023-03-26T01:03:28;93488.28;;;7.47;98.91
52105;BME280;38103;42.776;23.112;2023-03-26T01:05:59;93485.53;;;7.54;98.53
52105;BME280;38103;42.776;23.112;2023-03-26T01:08:29;93484.63;;;7.60;98.46
52105;BME280;38103;42.776;23.112;2023-03-26T01:10:57;93486.78;;;7.63;98.43
52105;BME280;38103;42.776;23.112;2023-03-26T01:13:35;93448.47;;;7.43;98.26
52105;BME280;38103;42.776;23.112;2023-03-26T01:16:01;93491.72;;;7.71;97.93
52105;BME280;38103;42.776;23.112;2023-03-26T01:18:29;93485.44;;;7.73;98.04
52105;BME280;38103;42.776;23.112;2023-03-26T01:20:59;93491.28;;;7.75;97.94
52105;BME280;38103;42.776;23.112;2023-03-26T01:23:48;93475.00;;;7.54;98.69
52105;BME280;38103;42.776;23.112;2023-03-26T01:26:44;93496.53;;;7.75;98.83
52105;BME280;38103;42.776;23.112;2023-03-26T01:29:24;93492.41;;;7.79;98.81
52105;BME280;38103;42.776;23.112;2023-03-26T01:32:05;93498.13;;;7.76;98.53
52105;BME280;38103;42.776;23.112;2023-03-26T01:35:01;93497.44;;;7.68;99.29
52105;BME280;38103;42.776;23.112;2023-03-26T01:40:34;93494.22;;;7.66;99.45
52105;BME280;38103;42.776;23.112;2023-03-26T01:43:27;93487.38;;;7.65;99.05
52105;BME280;38103;42.776;23.112;2023-03-26T01:45:59;93476.88;;;7.65;98.79
52105;BME280;38103;42.776;23.112;2023-03-26T01:48:34;93456.13;;;7.45;98.40
52105;BME280;38103;42.776;23.112;2023-03-26T01:51:01;93468.59;;;7.49;99.13
52105;BME280;38103;42.776;23.112;2023-03-26T01:53:27;93477.97;;;7.45;99.63
52105;BME280;38103;42.776;23.112;2023-03-26T01:56:08;93483.66;;;7.42;99.42
52105;BME280;38103;42.776;23.112;2023-03-26T02:01:26;93498.75;;;7.35;99.80
52105;BME280;38103;42.776;23.112;2023-03-26T02:04:18;93510.63;;;7.25;99.82
52105;BME280;38103;42.776;23.112;2023-03-26T02:06:52;93512.69;;;7.23;100.00
52105;BME280;38103;42.776;23.112;2023-03-26T02:09:24;93509.50;;;7.21;100.00
52105;BME280;38103;42.776;23.112;2023-03-26T02:11:53;93511.06;;;7.22;100.00
52105;BME280;38103;42.776;23.112;2023-03-26T02:14:19;93471.91;;;6.90;100.00
52105;BME280;38103;42.776;23.112;2023-03-26T02:16:45;93511.97;;;7.16;100.00
52105;BME280;38103;42.776;23.112;2023-03-26T02:19:11;93507.16;;;7.13;100.00
52105;BME280;38103;42.776;23.112;2023-03-26T02:21:40;93492.75;;;7.03;100.00
52105;BME280;38103;42.776;23.112;2023-03-26T02:24:06;93508.75;;;7.14;100.00
52105;BME280;38103;42.776;23.112;2023-03-26T02:26:33;93485.25;;;6.88;100.00
52105;BME280;38103;42.776;23.112;2023-03-26T02:29:00;93516.06;;;7.12;100.00
52105;BME280;38103;42.776;23.112;2023-03-26T02:31:28;93514.91;;;7.08;100.00
52105;BME280;38103;42.776;23.112;2023-03-26T02:33:54;93522.22;;;7.06;100.00
52105;BME280;38103;42.776;23.112;2023-03-26T02:36:21;93508.25;;;6.93;100.00
52105;BME280;38103;42.776;23.112;2023-03-26T02:38:51;93510.41;;;6.96;100.00
52105;BME280;38103;42.776;23.112;2023-03-26T02:41:17;93513.50;;;6.93;100.00
52105;BME280;38103;42.776;23.112;2023-03-26T02:43:42;93524.44;;;6.90;100.00
52105;BME280;38103;42.776;23.112;2023-03-26T02:46:08;93528.91;;;6.89;100.00
52105;BME280;38103;42.776;23.112;2023-03-26T02:48:33;93508.94;;;6.69;100.00
52105;BME280;38103;42.776;23.112;2023-03-26T02:51:02;93533.06;;;6.78;100.00
52105;BME280;38103;42.776;23.112;2023-03-26T02:53:28;93502.16;;;6.62;100.00
52105;BME280;38103;42.776;23.112;2023-03-26T02:55:57;93532.19;;;6.85;100.00
52105;BME280;38103;42.776;23.112;2023-03-26T02:58:23;93532.94;;;6.73;100.00
52105;BME280;38103;42.776;23.112;2023-03-26T03:00:51;93537.59;;;6.71;100.00
52105;BME280;38103;42.776;23.112;2023-03-26T03:03:23;93542.06;;;6.70;100.00
52105;BME280;38103;42.776;23.112;2023-03-26T03:05:52;93541.72;;;6.67;100.00
52105;BME280;38103;42.776;23.112;2023-03-26T03:08:19;93544.91;;;6.69;100.00
52105;BME280;38103;42.776;23.112;2023-03-26T03:10:57;93549.34;;;6.68;100.00
52105;BME280;38103;42.776;23.112;2023-03-26T03:13:23;93548.19;;;6.64;100.00
52105;BME280;38103;42.776;23.112;2023-03-26T03:15:49;93503.34;;;6.28;100.00
52105;BME280;38103;42.776;23.112;2023-03-26T03:18:14;93555.19;;;6.70;100.00
52105;BME280;38103;42.776;23.112;2023-03-26T03:20:40;93562.41;;;6.75;100.00
52105;BME280;38103;42.776;23.112;2023-03-26T03:23:05;93562.53;;;6.80;100.00
52105;BME280;38103;42.776;23.112;2023-03-26T03:25:31;93558.91;;;6.81;100.00
52105;BME280;38103;42.776;23.112;2023-03-26T03:27:56;93566.34;;;6.85;100.00
52105;BME280;38103;42.776;23.112;2023-03-26T03:30:23;93559.47;;;6.84;100.00
52105;BME280;38103;42.776;23.112;2023-03-26T03:32:48;93538.75;;;6.75;100.00
52105;BME280;38103;42.776;23.112;2023-03-26T03:35:14;93547.53;;;6.88;100.00
52105;BME280;38103;42.776;23.112;2023-03-26T03:37:40;93546.50;;;6.89;100.00
52105;BME280;38103;42.776;23.112;2023-03-26T03:40:06;93547.59;;;6.81;100.00
52105;BME280;38103;42.776;23.112;2023-03-26T03:42:32;93546.78;;;6.80;100.00
52105;BME280;38103;42.776;23.112;2023-03-26T03:44:57;93544.16;;;6.80;100.00
52105;BME280;38103;42.776;23.112;2023-03-26T03:47:22;93553.88;;;6.80;100.00
52105;BME280;38103;42.776;23.112;2023-03-26T03:49:48;93551.59;;;6.84;100.00
52105;BME280;38103;42.776;23.112;2023-03-26T03:52:14;93551.16;;;6.87;100.00
52105;BME280;38103;42.776;23.112;2023-03-26T03:54:40;93543.84;;;6.89;100.00
52105;BME280;38103;42.776;23.112;2023-03-26T03:57:06;93506.50;;;6.68;100.00
52105;BME280;38103;42.776;23.112;2023-03-26T03:59:31;93553.94;;;6.92;100.00
52105;BME280;38103;42.776;23.112;2023-03-26T04:01:56;93554.31;;;6.96;100.00
52105;BME280;38103;42.776;23.112;2023-03-26T04:04:22;93568.84;;;6.98;100.00
52105;BME280;38103;42.776;23.112;2023-03-26T04:06:49;93579.91;;;7.00;100.00
52105;BME280;38103;42.776;23.112;2023-03-26T04:09:15;93574.44;;;7.02;100.00
52105;BME280;38103;42.776;23.112;2023-03-26T04:11:41;93587.00;;;7.00;100.00
52105;BME280;38103;42.776;23.112;2023-03-26T04:14:06;93594.22;;;7.04;100.00
52105;BME280;38103;42.776;23.112;2023-03-26T04:16:31;93591.00;;;7.02;100.00
52105;BME280;38103;42.776;23.112;2023-03-26T04:18:57;93593.25;;;6.99;100.00
52105;BME280;38103;42.776;23.112;2023-03-26T04:21:22;93599.91;;;7.01;100.00
52105;BME280;38103;42.776;23.112;2023-03-26T04:23:48;93608.41;;;7.03;100.00
52105;BME280;38103;42.776;23.112;2023-03-26T04:26:17;93614.53;;;6.97;100.00
52105;BME280;38103;42.776;23.112;2023-03-26T04:28:48;93628.25;;;6.99;100.00
52105;BME280;38103;42.776;23.112;2023-03-26T04:31:17;93628.97;;;7.07;100.00
52105;BME280;38103;42.776;23.112;2023-03-26T04:33:46;93636.72;;;7.01;100.00
52105;BME280;38103;42.776;23.112;2023-03-26T04:36:12;93635.41;;;7.11;100.00
52105;BME280;38103;42.776;23.112;2023-03-26T04:38:42;93633.34;;;7.13;100.00
52105;BME280;38103;42.776;23.112;2023-03-26T04:41:11;93647.50;;;7.12;100.00
52105;BME280;38103;42.776;23.112;2023-03-26T04:43:36;93639.41;;;7.13;100.00
52105;BME280;38103;42.776;23.112;2023-03-26T04:46:07;93640.94;;;7.21;100.00
52105;BME280;38103;42.776;23.112;2023-03-26T04:48:35;93641.09;;;7.26;100.00
52105;BME280;38103;42.776;23.112;2023-03-26T04:51:00;93602.84;;;6.93;100.00
52105;BME280;38103;42.776;23.112;2023-03-26T04:53:26;93633.19;;;7.26;100.00
52105;BME280;38103;42.776;23.112;2023-03-26T04:55:56;93648.06;;;7.33;100.00
52105;BME280;38103;42.776;23.112;2023-03-26T04:58:23;93647.50;;;7.31;100.00
52105;BME280;38103;42.776;23.112;2023-03-26T05:00:54;93642.81;;;7.33;100.00
52105;BME280;38103;42.776;23.112;2023-03-26T05:03:20;93650.69;;;7.33;100.00
52105;BME280;38103;42.776;23.112;2023-03-26T05:05:45;93654.94;;;7.34;100.00
52105;BME280;38103;42.776;23.112;2023-03-26T05:08:10;93657.59;;;7.34;100.00
52105;BME280;38103;42.776;23.112;2023-03-26T05:10:36;93656.53;;;7.35;100.00
52105;BME280;38103;42.776;23.112;2023-03-26T05:13:01;93663.84;;;7.33;100.00
52105;BME280;38103;42.776;23.112;2023-03-26T05:15:27;93657.34;;;7.35;100.00
52105;BME280;38103;42.776;23.112;2023-03-26T05:17:52;93597.53;;;7.31;100.00
52105;BME280;38103;42.776;23.112;2023-03-26T05:20:25;93675.75;;;7.85;96.87
52105;BME280;38103;42.776;23.112;2023-03-26T05:22:51;93673.94;;;7.98;94.78
52105;BME280;38103;42.776;23.112;2023-03-26T05:25:17;93668.50;;;8.23;93.17
52105;BME280;38103;42.776;23.112;2023-03-26T05:27:43;93674.94;;;8.40;90.35
52105;BME280;38103;42.776;23.112;2023-03-26T05:30:13;93663.50;;;8.58;89.32
52105;BME280;38103;42.776;23.112;2023-03-26T05:32:38;93650.91;;;8.72;88.17
52105;BME280;38103;42.776;23.112;2023-03-26T05:35:04;93662.56;;;9.00;86.00
52105;BME280;38103;42.776;23.112;2023-03-26T05:37:30;93649.34;;;9.24;84.56
52105;BME280;38103;42.776;23.112;2023-03-26T05:39:56;93666.19;;;9.65;81.76
52105;BME280;38103;42.776;23.112;2023-03-26T05:42:22;93668.66;;;10.01;80.35
52105;BME280;38103;42.776;23.112;2023-03-26T05:44:48;93664.38;;;10.29;77.93
52105;BME280;38103;42.776;23.112;2023-03-26T05:47:13;93668.38;;;10.49;76.84
52105;BME280;38103;42.776;23.112;2023-03-26T05:49:39;93662.06;;;10.50;74.99
52105;BME280;38103;42.776;23.112;2023-03-26T05:52:04;93630.09;;;10.34;73.52
52105;BME280;38103;42.776;23.112;2023-03-26T05:54:30;93676.56;;;10.82;73.78
52105;BME280;38103;42.776;23.112;2023-03-26T05:56:55;93671.88;;;11.06;71.81
52105;BME280;38103;42.776;23.112;2023-03-26T05:59:22;93676.94;;;11.31;71.33
52105;BME280;38103;42.776;23.112;2023-03-26T06:01:47;93667.03;;;11.43;69.85
52105;BME280;38103;42.776;23.112;2023-03-26T06:04:16;93672.50;;;11.59;69.28
52105;BME280;38103;42.776;23.112;2023-03-26T06:06:41;93667.44;;;11.80;67.48
52105;BME280;38103;42.776;23.112;2023-03-26T06:09:07;93665.94;;;11.89;66.27
52105;BME280;38103;42.776;23.112;2023-03-26T06:11:33;93663.91;;;12.02;67.32
52105;BME280;38103;42.776;23.112;2023-03-26T06:13:58;93669.94;;;12.20;65.01
52105;BME280;38103;42.776;23.112;2023-03-26T06:16:24;93665.84;;;12.34;64.27
52105;BME280;38103;42.776;23.112;2023-03-26T06:18:49;93668.13;;;12.58;62.03
52105;BME280;38103;42.776;23.112;2023-03-26T06:21:16;93619.63;;;12.25;60.67
52105;BME280;38103;42.776;23.112;2023-03-26T06:23:42;93663.09;;;12.57;60.89
52105;BME280;38103;42.776;23.112;2023-03-26T06:26:07;93662.34;;;12.67;60.09
52105;BME280;38103;42.776;23.112;2023-03-26T06:28:33;93657.28;;;12.60;59.64
52105;BME280;38103;42.776;23.112;2023-03-26T06:30:59;93663.22;;;12.39;59.48
52105;BME280;38103;42.776;23.112;2023-03-26T06:33:28;93663.22;;;12.39;61.25
52105;BME280;38103;42.776;23.112;2023-03-26T06:35:53;93657.03;;;12.28;60.10
52105;BME280;38103;42.776;23.112;2023-03-26T06:38:19;93682.59;;;12.45;61.18
52105;BME280;38103;42.776;23.112;2023-03-26T06:40:44;93670.69;;;12.48;60.54
52105;BME280;38103;42.776;23.112;2023-03-26T06:43:09;93678.81;;;12.69;60.15
52105;BME280;38103;42.776;23.112;2023-03-26T06:45:36;93688.44;;;12.80;60.37
52105;BME280;38103;42.776;23.112;2023-03-26T06:48:02;93687.47;;;12.97;59.45
52105;BME280;38103;42.776;23.112;2023-03-26T06:50:28;93682.00;;;12.71;58.99
52105;BME280;38103;42.776;23.112;2023-03-26T06:52:53;93693.25;;;12.89;61.71
52105;BME280;38103;42.776;23.112;2023-03-26T06:55:19;93695.63;;;12.85;58.78
52105;BME280;38103;42.776;23.112;2023-03-26T06:57:52;93706.53;;;12.89;58.05
52105;BME280;38103;42.776;23.112;2023-03-26T07:00:18;93697.66;;;13.11;58.66
52105;BME280;38103;42.776;23.112;2023-03-26T07:02:44;93700.41;;;13.32;58.06
52105;BME280;38103;42.776;23.112;2023-03-26T07:05:10;93697.88;;;13.52;58.44
52105;BME280;38103;42.776;23.112;2023-03-26T07:07:35;93690.53;;;13.76;56.34
52105;BME280;38103;42.776;23.112;2023-03-26T07:10:02;93679.41;;;13.89;54.25
52105;BME280;38103;42.776;23.112;2023-03-26T07:12:28;93686.06;;;13.97;54.42
52105;BME280;38103;42.776;23.112;2023-03-26T07:14:53;93677.31;;;14.02;53.36
52105;BME280;38103;42.776;23.112;2023-03-26T07:17:19;93652.84;;;14.00;53.75
52105;BME280;38103;42.776;23.112;2023-03-26T07:19:44;93668.81;;;14.10;52.65
52105;BME280;38103;42.776;23.112;2023-03-26T07:22:28;93671.94;;;13.70;54.95
52105;BME280;38103;42.776;23.112;2023-03-26T07:24:53;93669.53;;;13.79;54.71
52105;BME280;38103;42.776;23.112;2023-03-26T07:27:56;93662.94;;;13.98;53.18
52105;BME280;38103;42.776;23.112;2023-03-26T07:35:57;93641.19;;;14.37;52.15
52105;BME280;38103;42.776;23.112;2023-03-26T07:38:49;93670.44;;;14.74;50.18
52105;BME280;38103;42.776;23.112;2023-03-26T07:41:26;93663.00;;;14.87;51.09
52105;BME280;38103;42.776;23.112;2023-03-26T07:46:29;93681.56;;;15.13;50.19
52105;BME280;38103;42.776;23.112;2023-03-26T07:48:56;93671.50;;;14.89;48.44
52105;BME280;38103;42.776;23.112;2023-03-26T07:51:24;93667.22;;;15.03;48.63
52105;BME280;38103;42.776;23.112;2023-03-26T07:53:50;93667.22;;;15.03;48.18
52105;BME280;38103;42.776;23.112;2023-03-26T07:59:02;93660.50;;;15.27;46.41
52105;BME280;38103;42.776;23.112;2023-03-26T08:06:38;93644.84;;;15.10;46.39
52105;BME280;38103;42.776;23.112;2023-03-26T08:09:25;93668.25;;;15.13;46.01
52105;BME280;38103;42.776;23.112;2023-03-26T08:17:38;93666.19;;;14.89;50.51
52105;BME280;38103;42.776;23.112;2023-03-26T08:20:25;93667.22;;;14.72;46.10
52105;BME280;38103;42.776;23.112;2023-03-26T08:23:04;93670.44;;;14.74;48.89
52105;BME280;38103;42.776;23.112;2023-03-26T08:31:33;93667.16;;;15.24;46.59
52105;BME280;38103;42.776;23.112;2023-03-26T08:33:59;93659.63;;;15.47;46.70
52105;BME280;38103;42.776;23.112;2023-03-26T08:36:24;93665.19;;;15.56;45.15
52105;BME280;38103;42.776;23.112;2023-03-26T08:38:50;93665.44;;;15.60;44.18
52105;BME280;38103;42.776;23.112;2023-03-26T09:00:16;93674.16;;;15.04;46.24
52105;BME280;38103;42.776;23.112;2023-03-26T09:06:22;93659.75;;;15.05;46.36
52105;BME280;38103;42.776;23.112;2023-03-26T09:12:17;93652.56;;;14.85;43.90
52105;BME280;38103;42.776;23.112;2023-03-26T09:28:27;93632.13;;;14.64;44.00
52105;BME280;38103;42.776;23.112;2023-03-26T09:33:59;93623.59;;;14.89;41.44
52105;BME280;38103;42.776;23.112;2023-03-26T09:36:45;93632.09;;;14.80;43.34
52105;BME280;38103;42.776;23.112;2023-03-26T09:42:23;93634.22;;;14.99;42.49
52105;BME280;38103;42.776;23.112;2023-03-26T09:45:24;93625.69;;;15.07;40.70
52105;BME280;38103;42.776;23.112;2023-03-26T09:50:39;93623.84;;;14.92;40.82
52105;BME280;38103;42.776;23.112;2023-03-26T09:56:03;93622.28;;;14.91;42.69
52105;BME280;38103;42.776;23.112;2023-03-26T09:58:51;93619.84;;;14.90;40.36
52105;BME280;38103;42.776;23.112;2023-03-26T10:10:03;93594.03;;;15.01;39.27
52105;BME280;38103;42.776;23.112;2023-03-26T10:12:40;93597.47;;;15.06;37.15
52105;BME280;38103;42.776;23.112;2023-03-26T10:18:09;93579.88;;;15.11;39.85
52105;BME280;38103;42.776;23.112;2023-03-26T10:20:56;93570.81;;;15.12;37.45
52105;BME280;38103;42.776;23.112;2023-03-26T10:23:33;93562.31;;;15.10;35.54
52105;BME280;38103;42.776;23.112;2023-03-26T10:27:16;93563.13;;;15.05;37.46
52105;BME280;38103;42.776;23.112;2023-03-26T10:29:37;93557.00;;;15.10;37.23
52105;BME280;38103;42.776;23.112;2023-03-26T10:32:11;93556.41;;;15.18;38.80
52105;BME280;38103;42.776;23.112;2023-03-26T10:37:42;93545.16;;;15.32;37.47
52105;BME280;38103;42.776;23.112;2023-03-26T10:54:10;93519.19;;;15.07;37.54
52105;BME280;38103;42.776;23.112;2023-03-26T10:59:12;93531.22;;;15.50;38.51
52105;BME280;38103;42.776;23.112;2023-03-26T11:09:43;93523.16;;;15.61;40.26
52105;BME280;38103;42.776;23.112;2023-03-26T11:15:23;93512.44;;;15.71;40.68
52105;BME280;38103;42.776;23.112;2023-03-26T11:20:40;93498.41;;;15.90;36.00
52105;BME280;38103;42.776;23.112;2023-03-26T11:33:10;93499.97;;;15.96;34.14
52105;BME280;38103;42.776;23.112;2023-03-26T11:35:42;93488.91;;;15.79;36.36
52105;BME280;38103;42.776;23.112;2023-03-26T11:38:12;93490.75;;;15.83;36.30
52105;BME280;38103;42.776;23.112;2023-03-26T11:40:42;93443.81;;;15.52;35.18
52105;BME280;38103;42.776;23.112;2023-03-26T11:43:17;93479.84;;;15.80;35.91
52105;BME280;38103;42.776;23.112;2023-03-26T11:45:47;93470.22;;;15.84;33.73
52105;BME280;38103;42.776;23.112;2023-03-26T11:50:49;93461.25;;;16.04;34.08
52105;BME280;38103;42.776;23.112;2023-03-26T11:53:18;93466.06;;;16.02;33.89
52105;BME280;38103;42.776;23.112;2023-03-26T11:55:49;93442.31;;;16.06;32.80
52105;BME280;38103;42.776;23.112;2023-03-26T11:58:37;93400.31;;;15.92;33.12
52105;BME280;38103;42.776;23.112;2023-03-26T12:01:13;93446.78;;;16.40;32.47
52105;BME280;38103;42.776;23.112;2023-03-26T12:03:40;93411.75;;;16.23;31.56
52105;BME280;38103;42.776;23.112;2023-03-26T12:06:21;93427.09;;;16.36;31.63
52105;BME280;38103;42.776;23.112;2023-03-26T12:08:49;93442.50;;;16.39;33.34
52105;BME280;38103;42.776;23.112;2023-03-26T12:11:16;93425.72;;;16.39;28.47
52105;BME280;38103;42.776;23.112;2023-03-26T12:13:50;93427.59;;;16.38;29.68
52105;BME280;38103;42.776;23.112;2023-03-26T12:16:19;93416.53;;;16.26;28.37
52105;BME280;38103;42.776;23.112;2023-03-26T12:18:47;93411.41;;;16.29;29.90
52105;BME280;38103;42.776;23.112;2023-03-26T12:21:22;93428.81;;;16.22;29.57
52105;BME280;38103;42.776;23.112;2023-03-26T12:23:59;93414.13;;;16.24;27.63
52105;BME280;38103;42.776;23.112;2023-03-26T12:26:38;93416.84;;;16.19;30.34
52105;BME280;38103;42.776;23.112;2023-03-26T12:29:16;93401.09;;;16.23;31.01
52105;BME280;38103;42.776;23.112;2023-03-26T12:32:05;93400.34;;;16.41;30.11
52105;BME280;38103;42.776;23.112;2023-03-26T12:34:34;93384.34;;;16.41;28.65
52105;BME280;38103;42.776;23.112;2023-03-26T12:37:01;93397.81;;;16.31;27.86
52105;BME280;38103;42.776;23.112;2023-03-26T12:39:41;93387.94;;;16.07;29.01
52105;BME280;38103;42.776;23.112;2023-03-26T12:44:50;93387.16;;;16.01;29.36
52105;BME280;38103;42.776;23.112;2023-03-26T12:47:32;93382.63;;;16.02;27.85
52105;BME280;38103;42.776;23.112;2023-03-26T12:49:58;93375.22;;;15.93;28.26
52105;BME280;38103;42.776;23.112;2023-03-26T12:58:23;93379.03;;;15.87;28.38
52105;BME280;38103;42.776;23.112;2023-03-26T13:12:10;93373.91;;;15.91;29.24
52105;BME280;38103;42.776;23.112;2023-03-26T13:14:50;93369.84;;;15.98;27.25
52105;BME280;38103;42.776;23.112;2023-03-26T13:17:48;93367.59;;;16.11;28.78
52105;BME280;38103;42.776;23.112;2023-03-26T13:23:06;93362.94;;;15.97;28.21
52105;BME280;38103;42.776;23.112;2023-03-26T13:25:47;93354.88;;;16.03;27.53
52105;BME280;38103;42.776;23.112;2023-03-26T13:30:59;93344.91;;;16.14;29.23
52105;BME280;38103;42.776;23.112;2023-03-26T13:33:38;93346.88;;;16.08;28.03
52105;BME280;38103;42.776;23.112;2023-03-26T13:36:32;93330.53;;;15.85;28.83
52105;BME280;38103;42.776;23.112;2023-03-26T13:45:23;93333.44;;;15.89;30.57
52105;BME280;38103;42.776;23.112;2023-03-26T13:47:54;93338.25;;;15.86;28.62
52105;BME280;38103;42.776;23.112;2023-03-26T13:50:25;93306.84;;;15.59;30.56
52105;BME280;38103;42.776;23.112;2023-03-26T13:55:31;93340.56;;;15.93;32.18
52105;BME280;38103;42.776;23.112;2023-03-26T14:06:25;93320.16;;;15.83;32.28
52105;BME280;38103;42.776;23.112;2023-03-26T14:08:57;93324.25;;;15.75;32.36
52105;BME280;38103;42.776;23.112;2023-03-26T14:14:10;93312.56;;;15.71;33.79
52105;BME280;38103;42.776;23.112;2023-03-26T14:16:42;93313.88;;;15.74;32.52
52105;BME280;38103;42.776;23.112;2023-03-26T14:27:39;93309.44;;;15.64;29.06
52105;BME280;38103;42.776;23.112;2023-03-26T14:30:46;93316.66;;;15.63;30.42
52105;BME280;38103;42.776;23.112;2023-03-26T14:41:52;93296.28;;;15.48;31.54
52105;BME280;38103;42.776;23.112;2023-03-26T14:52:48;93302.22;;;15.40;33.19
52105;BME280;38103;42.776;23.112;2023-03-26T15:10:03;93309.44;;;15.04;33.65
52105;BME280;38103;42.776;23.112;2023-03-26T15:15:32;93299.84;;;15.03;33.11
52105;BME280;38103;42.776;23.112;2023-03-26T15:26:57;93309.59;;;14.78;32.96
52105;BME280;38103;42.776;23.112;2023-03-26T15:29:36;93306.69;;;14.74;32.94
52105;BME280;38103;42.776;23.112;2023-03-26T15:49:11;93312.16;;;14.48;33.26
52105;BME280;38103;42.776;23.112;2023-03-26T15:51:54;93312.97;;;14.49;32.92
52105;BME280;38103;42.776;23.112;2023-03-26T15:54:32;93311.44;;;14.37;33.92
52105;BME280;38103;42.776;23.112;2023-03-26T16:00:18;93308.09;;;14.16;34.47
52105;BME280;38103;42.776;23.112;2023-03-26T16:03:02;93307.34;;;14.00;34.69
52105;BME280;38103;42.776;23.112;2023-03-26T16:11:01;93297.34;;;13.76;34.93
52105;BME280;38103;42.776;23.112;2023-03-26T16:24:40;93302.22;;;13.11;36.68
52105;BME280;38103;42.776;23.112;2023-03-26T16:32:43;93267.22;;;12.82;37.88
52105;BME280;38103;42.776;23.112;2023-03-26T16:37:42;93311.22;;;12.99;36.63
52105;BME280;38103;42.776;23.112;2023-03-26T16:46:07;93303.81;;;12.85;38.10
52105;BME280;38103;42.776;23.112;2023-03-26T16:48:39;93306.19;;;12.82;38.87
52105;BME280;38103;42.776;23.112;2023-03-26T16:58:52;93298.94;;;12.25;39.68
52105;BME280;38103;42.776;23.112;2023-03-26T17:01:45;93311.56;;;12.02;39.73
52105;BME280;38103;42.776;23.112;2023-03-26T17:04:13;93306.16;;;11.76;40.92
52105;BME280;38103;42.776;23.112;2023-03-26T17:12:37;93324.22;;;10.97;42.74
52105;BME280;38103;42.776;23.112;2023-03-26T17:18:00;93327.38;;;10.66;42.86
52105;BME280;38103;42.776;23.112;2023-03-26T17:20:41;93331.03;;;10.60;43.00
52105;BME280;38103;42.776;23.112;2023-03-26T17:26:20;93328.16;;;10.61;44.45
52105;BME280;38103;42.776;23.112;2023-03-26T17:44:58;93329.41;;;9.86;45.12
52105;BME280;38103;42.776;23.112;2023-03-26T17:51:10;93326.44;;;9.60;44.55
52105;BME280;38103;42.776;23.112;2023-03-26T17:53:41;93318.94;;;9.52;45.17
52105;BME280;38103;42.776;23.112;2023-03-26T17:56:13;93326.31;;;9.49;45.85
52105;BME280;38103;42.776;23.112;2023-03-26T17:58:42;93319.44;;;9.48;45.75
52105;BME280;38103;42.776;23.112;2023-03-26T18:03:40;93321.06;;;9.32;45.79
52105;BME280;38103;42.776;23.112;2023-03-26T18:18:26;93311.66;;;9.19;47.33
52105;BME280;38103;42.776;23.112;2023-03-26T18:20:57;93320.66;;;9.23;47.14
52105;BME280;38103;42.776;23.112;2023-03-26T18:23:45;93316.19;;;9.24;46.99
52105;BME280;38103;42.776;23.112;2023-03-26T18:29:20;93316.75;;;9.26;47.57
52105;BME280;38103;42.776;23.112;2023-03-26T18:31:51;93311.66;;;9.19;47.92
52105;BME280;38103;42.776;23.112;2023-03-26T18:34:19;93307.97;;;9.20;48.27
52105;BME280;38103;42.776;23.112;2023-03-26T18:37:07;93305.25;;;9.15;48.72
52105;BME280;38103;42.776;23.112;2023-03-26T18:39:39;93307.81;;;9.10;49.28
52105;BME280;38103;42.776;23.112;2023-03-26T18:42:05;93299.53;;;9.01;49.92
52105;BME280;38103;42.776;23.112;2023-03-26T18:44:34;93284.03;;;8.87;50.35
52105;BME280;38103;42.776;23.112;2023-03-26T18:47:05;93296.97;;;8.89;50.33
52105;BME280;38103;42.776;23.112;2023-03-26T18:49:31;93292.19;;;8.86;50.76
52105;BME280;38103;42.776;23.112;2023-03-26T18:51:57;93277.22;;;8.74;49.81
52105;BME280;38103;42.776;23.112;2023-03-26T18:54:23;93288.41;;;8.81;50.32
52105;BME280;38103;42.776;23.112;2023-03-26T18:56:51;93288.91;;;8.78;50.50
52105;BME280;38103;42.776;23.112;2023-03-26T18:59:30;93283.06;;;8.76;50.75